Flight Track Log - Related Links

Times and Time Zones

All times are in EDT time to prevent confusion due to time zone crossing. See the AAY890 flight status page for this flight to view local times or setup timezone preferences in your user account.

Time Position Orientation Groundspeed Altitude Reporting Facility
EDT Latitude Longitude Course Direction KTS MPH feet Rate Location/Type
Sat 03:43:17 PM 27.9000 -82.6833 180° South 169 194 700  Level Tampa TRACON
Sat 03:43:41 PM 27.8667 -82.6833 180° South 182 209 1,800 2,286 Climbing Tampa TRACON
Sat 03:44:41 PM 27.8167 -82.6833 180° South 222 255 3,900 1,100 Climbing Tampa TRACON
Sat 03:45:41 PM 27.8167 -82.7500 270° West 271 312 4,000 400 Climbing Tampa TRACON
Sat 03:46:41 PM 27.9000 -82.7833 341° North 281 323 4,700 1,850 Climbing Tampa TRACON
Sat 03:47:41 PM 27.9667 -82.8167 336° Northwest 281 323 7,700 2,487 Climbing Tampa TRACON
Sat 03:49:13 PM 28.0792 -82.8444 348° North 308 354 11,000 1,856 Climbing Miami Center
Sat 03:50:00 PM 28.1603 -82.8408 North 320 368 12,000 1,907 Climbing Jacksonville Center
Sat 03:51:00 PM 28.2708 -82.8547 354° North 358 412 14,400 2,400 Climbing Jacksonville Center
Sat 03:52:00 PM 28.3817 -82.8736 351° North 386 444 16,800 2,200 Climbing Jacksonville Center
Sat 03:53:00 PM 28.4983 -82.8903 353° North 410 472 18,800 1,800 Climbing Jacksonville Center
Sat 03:54:00 PM 28.6217 -82.9092 352° North 423 487 20,400 1,850 Climbing Jacksonville Center
Sat 03:55:00 PM 28.7572 -82.9258 354° North 435 501 22,500 1,750 Climbing Jacksonville Center
Sat 03:56:00 PM 28.8844 -82.9447 353° North 442 509 23,900 1,462 Climbing Jacksonville Center
Sat 03:56:59 PM 29.0161 -82.9639 353° North 458 527 25,400 1,400 Climbing Jacksonville Center
Sat 03:58:00 PM 29.1475 -82.9831 353° North 469 540 26,700 1,934 Climbing Jacksonville Center
Sat 03:59:00 PM 29.2789 -83.0022 353° North 469 540 29,300 2,067 Climbing Jacksonville Center
Sat 03:59:59 PM 29.4022 -83.0214 352° North 464 534 30,800 1,200 Climbing Jacksonville Center
Sat 04:01:00 PM 29.5275 -83.0406 352° North 451 519 31,700 550 Climbing Jacksonville Center
Sat 04:01:59 PM 29.6525 -83.0550 354° North 456 525 31,900 650 Climbing Jacksonville Center
Sat 04:03:00 PM 29.7819 -83.0719 354° North 456 525 33,000 942 Climbing Jacksonville Center
Sat 04:04:00 PM 29.9053 -83.0819 356° North 458 527 33,800 450 Climbing Jacksonville Center
Sat 04:05:00 PM 30.0200 -83.0942 355° North 445 512 33,900 50 Climbing Jacksonville Center
Sat 04:06:00 PM 30.1494 -83.1064 355° North 451 519 33,900  Level Jacksonville Center
Sat 04:07:00 PM 30.2767 -83.1186 355° North 451 519 33,900  Level Jacksonville Center
Sat 04:08:00 PM 30.4019 -83.1333 354° North 451 519 33,900  Level Jacksonville Center
Sat 04:09:00 PM 30.5294 -83.1458 355° North 451 519 33,900  Level Jacksonville Center
Sat 04:09:59 PM 30.6547 -83.1583 355° North 451 519 33,900  Level Jacksonville Center
Sat 04:11:00 PM 30.7819 -83.1731 354° North 456 525 33,900 50 Level Jacksonville Center
Sat 04:12:00 PM 30.9031 -83.1881 354° North 456 525 34,000 33 Climbing Jacksonville Center
Sat 04:14:03 PM 31.1681 -83.2478 349° North 445 512 34,000  Level Atlanta Center
Sat 04:15:03 PM 31.2892 -83.2783 348° North 450 518 34,000  Level Atlanta Center
Sat 04:16:03 PM 31.4106 -83.3114 347° North 450 518 34,000  Level Atlanta Center
Sat 04:17:03 PM 31.5317 -83.3397 349° North 450 518 34,000  Level Atlanta Center
Sat 04:18:03 PM 31.6569 -83.3558 354° North 450 518 34,000  Level Atlanta Center
Sat 04:19:03 PM 31.7803 -83.3694 355° North 445 512 34,000  Level Atlanta Center
Sat 04:20:03 PM 31.8992 -83.3833 354° North 445 512 34,000  Level Atlanta Center
Sat 04:21:03 PM 32.0247 -83.3994 354° North 445 512 34,000  Level Atlanta Center
Sat 04:22:03 PM 32.1436 -83.4158 353° North 445 512 34,000  Level Atlanta Center
Sat 04:23:03 PM 32.2647 -83.4297 354° North 445 512 34,000  Level Atlanta Center
Sat 04:24:03 PM 32.3858 -83.4436 354° North 445 512 34,000  Level Atlanta Center
Sat 04:25:03 PM 32.5092 -83.4600 354° North 445 512 34,000  Level Atlanta Center
Sat 04:26:03 PM 32.6283 -83.4742 354° North 439 505 34,000  Level Atlanta Center
Sat 04:27:03 PM 32.7514 -83.4906 354° North 439 505 34,000  Level Atlanta Center
Sat 04:28:03 PM 32.8706 -83.5047 354° North 439 505 34,000  Level Atlanta Center
Sat 04:29:03 PM 32.9894 -83.5211 353° North 439 505 34,000  Level Atlanta Center
Sat 04:30:03 PM 33.0981 -83.5331 355° North 432 497 34,000  Level Atlanta Center
Sat 04:31:03 PM 33.2172 -83.5497 353° North 432 497 34,000  Level Atlanta Center
Sat 04:32:03 PM 33.3403 -83.5614 355° North 432 497 34,000  Level Atlanta Center
Sat 04:33:03 PM 33.4572 -83.5781 353° North 427 491 34,000  Level Atlanta Center
Sat 04:34:03 PM 33.5764 -83.5925 354° North 427 491 34,000  Level Atlanta Center
Sat 04:35:03 PM 33.6911 -83.6069 354° North 427 491 34,000  Level Atlanta Center
Sat 04:36:03 PM 33.8122 -83.6189 355° North 427 491 34,000  Level Atlanta Center
Sat 04:37:03 PM 33.9292 -83.6333 354° North 427 491 34,000  Level Atlanta Center
Sat 04:38:03 PM 34.0442 -83.6503 353° North 421 484 34,000  Level Atlanta Center
Sat 04:39:03 PM 34.1611 -83.6647 354° North 421 484 34,000  Level Atlanta Center
Sat 04:40:03 PM 34.2758 -83.6819 353° North 421 484 34,000  Level Atlanta Center
Sat 04:41:03 PM 34.3906 -83.6939 355° North 416 479 34,000  Level Atlanta Center
Sat 04:42:03 PM 34.5056 -83.7111 353° North 416 479 34,000  Level Atlanta Center
Sat 04:43:03 PM 34.6183 -83.7233 355° North 411 473 34,000  Level Atlanta Center
Sat 04:44:03 PM 34.7331 -83.7406 353° North 406 467 34,000  Level Atlanta Center
Sat 04:45:03 PM 34.8458 -83.7553 354° North 406 467 34,000  Level Atlanta Center
Sat 04:46:03 PM 34.9711 -83.7725 354° North 406 467 34,000  Level Atlanta Center
Sat 04:47:03 PM 35.0858 -83.7875 354° North 406 467 34,000  Level Atlanta Center
Sat 04:48:03 PM 35.2006 -83.8025 354° North 406 467 34,000  Level Atlanta Center
Sat 04:49:03 PM 35.3153 -83.8172 354° North 406 467 34,000  Level Atlanta Center
Sat 04:50:03 PM 35.4303 -83.8322 354° North 406 467 34,000  Level Atlanta Center
Sat 04:51:03 PM 35.5450 -83.8472 354° North 406 467 34,000  Level Atlanta Center
Sat 04:52:03 PM 35.6619 -83.8625 354° North 411 473 34,000  Level Atlanta Center
Sat 04:53:03 PM 35.7744 -83.8800 353° North 411 473 34,000  Level Atlanta Center
Sat 04:54:50 PM 35.9800 -83.9042 355° North 418 481 34,000  Level Indianapolis Center
Sat 04:55:51 PM 36.0964 -83.9214 353° North 418 481 34,000  Level Indianapolis Center
Sat 04:56:53 PM 36.2125 -83.9397 353° North 419 482 34,000  Level Indianapolis Center
Sat 04:57:54 PM 36.3297 -83.9558 354° North 420 483 34,000  Level Indianapolis Center
Sat 04:58:56 PM 36.4464 -83.9739 353° North 421 484 34,000  Level Indianapolis Center
Sat 04:59:57 PM 36.5736 -83.9928 353° North 422 486 34,000  Level Indianapolis Center
Sat 05:00:59 PM 36.6922 -84.0106 353° North 422 486 34,000  Level Indianapolis Center
Sat 05:02:01 PM 36.8108 -84.0281 353° North 423 487 34,000  Level Indianapolis Center
Sat 05:03:02 PM 36.9294 -84.0458 353° North 425 489 34,000  Level Indianapolis Center
Sat 05:04:04 PM 37.0667 -84.0667 353° North 425 489 34,000  Level Indianapolis Center
Sat 05:05:06 PM 37.1839 -84.0836 353° North 425 489 34,000  Level Indianapolis Center
Sat 05:06:07 PM 37.2997 -84.1017 353° North 422 486 34,000  Level Indianapolis Center
Sat 05:07:09 PM 37.4169 -84.1189 353° North 422 486 34,000  Level Indianapolis Center
Sat 05:08:11 PM 37.5339 -84.1369 353° North 422 486 34,000  Level Indianapolis Center
Sat 05:09:12 PM 37.6508 -84.1550 353° North 422 486 34,000  Level Indianapolis Center
Sat 05:10:14 PM 37.7678 -84.1725 353° North 422 486 34,000  Level Indianapolis Center
Sat 05:11:15 PM 37.8839 -84.1908 353° North 421 484 34,000  Level Indianapolis Center
Sat 05:12:17 PM 38.0189 -84.2219 350° North 422 486 34,000  Level Indianapolis Center
Sat 05:13:18 PM 38.1322 -84.2597 345° North 422 486 34,000  Level Indianapolis Center
Sat 05:14:20 PM 38.2461 -84.2961 346° North 422 486 34,000  Level Indianapolis Center
Sat 05:15:21 PM 38.3617 -84.3311 347° North 422 486 34,000  Level Indianapolis Center
Sat 05:16:23 PM 38.4764 -84.3686 346° North 422 486 34,000  Level Indianapolis Center
Sat 05:17:24 PM 38.5919 -84.4056 346° North 423 487 34,000  Level Indianapolis Center
Sat 05:18:26 PM 38.7169 -84.4456 346° North 423 487 34,000  Level Indianapolis Center
Sat 05:19:28 PM 38.8314 -84.4817 346° North 423 487 34,000 -537 Level Indianapolis Center
Sat 05:20:29 PM 38.9469 -84.5200 346° North 424 488 32,900 -1,268 Descending Indianapolis Center
Sat 05:21:31 PM 39.0639 -84.5564 346° North 428 493 31,400 -1,452 Descending Indianapolis Center
Sat 05:22:33 PM 39.1839 -84.5967 345° North 439 505 29,900 -1,463 Descending Indianapolis Center
Sat 05:23:34 PM 39.3058 -84.6350 346° North 445 512 28,400 -1,475 Descending Indianapolis Center
Sat 05:24:35 PM 39.4258 -84.6747 346° North 446 513 26,900 -1,610 Descending Indianapolis Center
Sat 05:25:37 PM 39.5650 -84.7206 346° North 435 501 25,100 -1,403 Descending Indianapolis Center
Sat 05:26:39 PM 39.6764 -84.7564 346° North 421 484 24,000 -537 Descending Indianapolis Center
Sat 05:27:40 PM 39.7847 -84.7925 346° North 410 472 24,000 -341 Level Indianapolis Center
Sat 05:28:42 PM 39.8933 -84.8294 345° North 407 468 23,300 -1,355 Descending Indianapolis Center
Sat 05:29:44 PM 39.9994 -84.8717 343° North 403 464 21,200 -2,293 Descending Indianapolis Center
Sat 05:30:45 PM 40.1075 -84.9317 337° Northwest 395 455 18,600 -2,341 Descending Indianapolis Center
Sat 05:31:47 PM 40.2056 -84.9828 338° Northwest 387 445 16,400 -2,274 Descending Indianapolis Center
Sat 05:32:49 PM 40.3036 -85.0125 347° North 369 425 13,900 -2,488 Descending Indianapolis Center
Sat 05:33:50 PM 40.4047 -85.0394 349° North 369 425 11,300 -1,902 Descending Indianapolis Center
Sat 05:34:52 PM 40.4986 -85.0633 349° North 354 407 10,000 -1,548 Descending Indianapolis Center
Sat 05:35:54 PM 40.5839 -85.1167 335° Northwest 293 337 8,100 -1,756 Descending Indianapolis Center
Sat 05:36:55 PM 40.6547 -85.1625 334° Northwest 287 330 6,400 -1,692 Descending Indianapolis Center
Sat 05:37:51 PM 40.7139 -85.2014 334° Northwest 283 326 4,800 -1,729 Descending Chicago Center
Sat 05:38:53 PM 40.7764 -85.2450 332° Northwest 269 310 3,000 -1,122 Descending Chicago Center
Sat 05:39:54 PM 40.8347 -85.2644 346° North 234 269 2,500 -422 Descending Chicago Center
Sat 05:41:58 PM 40.9311 -85.2517 339° North 169 194 1,700 -323 Descending Chicago Center
Sat 05:43:00 PM 40.9581 -85.2086 50° Northeast 166 191 1,500 -194 Descending Chicago Center

Login

Don't have an account? Register now (free) for customized features, flight alerts, and more!